Arden, Nevada
Current Conditions -  °F | °C
As of 6:56 AM on Friday 28 Nov 2014 (Local Time) from KLAS Reporting Station
Few Clouds Few Clouds  
Wind Chill: 40°   Ceiling: Unl
Heat Index: 44°   Visibility: 10mi
Dew Point: 21°   Wind: 7mph
Humidity: 40%   Direction: 220°SW
Pressure: 30.07"   Gusts: NA
Location:  36.079°N, 115.211°W
Report Text: KLAS 281456Z 22006KT 10SM FEW250 07/M06 A3007 RMK AO2 SLP179 T00671061 56002
Loading
Personal Weather Stations






























Interactive Weather Map New forecast layout! Learn more

10-Day Weather Forecast

Advertisements
Track Severe Weather on mobile